MSC Davos — A8IG3 — position and weather

sailwx.info

Track history (hours):
 
Tides and Currents Weather Stations Pressure Air Temp Water Temp Dewpoint Dewpoint Depression Visibility Wind Speed Wind Dir Waves Ship Positions

MSC Davos

Last reported at 2015-Jun-17 18:00 UTC. Time now 2015-Jun-30 03:33 UTC.
Position N 15°24' W 097°24'.
Warning: this ship's position is 12 days out of date.

Length 210.9 m; beam 32.3 m; draft 12 m.

Type: Cargo ship. MMSI: 636090972.

Wind from 360 at 2 knots

Waves 0.5 meters (2 feet), 99 second period

Barometer 1010.5 mb
Air temperature 29.6 ° C
Visibility: greater than 27.0 NM
Dewpoint 24.7 ° C
Water temperature 29.0 ° C

Date/timePositionNaut miles runAvg speedWind from/ knotsBaromVisibWave heightAir tempDewpointWater temp
2015-Jun-17 18:00N 15°24' W 097°24'   360 / 21010.527.0 0.529.624.729.0
2015-Jun-11 18:07N 32°27' W 117°32'813.7
2015-Jun-11 17:33N 32°32' W 117°39'1111.2
2015-Jun-11 16:33N 32°41' W 117°47'1312.8
2015-Jun-11 15:33N 32°53' W 117°52'1211.8
2015-Jun-11 14:33N 33°04' W 117°58'1111.1
2015-Jun-11 13:33N 33°14' W 118°03'2311.3
2015-Jun-11 11:30N 33°36' W 118°13'8 8.7
2015-Jun-11 10:34N 33°44' W 118°16'1 0.7
2015-Jun-11 09:30N 33°44' W 118°15'0 0.0
2015-Jun-11 08:30N 33°44' W 118°15'0 0.0
2015-Jun-11 07:33N 33°44' W 118°15'0 0.0
2015-Jun-11 04:15N 33°44' W 118°15'0 0.0
2015-Jun-11 03:33N 33°44' W 118°15'0 0.0
2015-Jun-11 01:06N 33°44' W 118°15'0 0.0
2015-Jun-11 00:33N 33°44' W 118°15'0 0.0
2015-Jun-10 23:21N 33°44' W 118°15'0 0.0
2015-Jun-10 22:27N 33°44' W 118°15'0 0.0
2015-Jun-10 20:24N 33°44' W 118°15'0 0.0
2015-Jun-10 19:33N 33°44' W 118°15'0 0.0
2015-Jun-10 18:21N 33°44' W 118°15'0 0.0
2015-Jun-10 17:18N 33°44' W 118°15'0 0.0
2015-Jun-10 16:30N 33°44' W 118°15'0 0.2
2015-Jun-10 15:33N 33°44' W 118°15'8 7.7
2015-Jun-10 14:33N 33°37' W 118°11'6 5.7
2015-Jun-10 13:33N 33°32' W 118°08'8 8.2
2015-Jun-10 12:33N 33°24' W 118°05'1010.1
2015-Jun-10 11:33N 33°15' W 118°00'1212.0
2015-Jun-10 10:33N 33°04' W 117°55'1212.5
2015-Jun-10 09:33N 32°52' W 117°51'1212.2
2015-Jun-10 08:33N 32°40' W 117°46'1211.7
2015-Jun-10 07:33N 32°29' W 117°42'1211.7
2015-Jun-10 06:33N 32°18' W 117°38'1212.2
2015-Jun-10 05:33N 32°06' W 117°33'80516.9
2015-Jun-08 06:00N 20°54' W 109°18'12710.6 210 / 231010.0 5.4 4.024.322.521.0
2015-Jun-07 18:00N 19°54' W 107°18'   170 / 271009.9 5.4 4.528.523.826.0
Track history (hours):
 
Tides and Currents Weather Stations Pressure Air Temp Water Temp Dewpoint Dewpoint Depression Visibility Wind Speed Wind Dir Waves Ship Positions

MSC Davos

Last reported at 2015-Jun-17 18:00 UTC. Time now 2015-Jun-30 03:33 UTC.
Position N 15°24' W 097°24'.
Warning: this ship's position is 12 days out of date.

Length 210.9 m; beam 32.3 m; draft 12 m.

Type: Cargo ship. MMSI: 636090972.

Wind from 360 at 2 knots

Waves 0.5 meters (2 feet), 99 second period

Barometer 1010.5 mb
Air temperature 29.6 ° C
Visibility: greater than 27.0 NM
Dewpoint 24.7 ° C
Water temperature 29.0 ° C

Date/timePositionNaut miles runAvg speedWind from/ knotsBaromVisibWave heightAir tempDewpointWater temp
2015-Jun-17 18:00N 15°24' W 097°24'   360 / 21010.527.0 0.529.624.729.0
2015-Jun-11 18:07N 32°27' W 117°32'813.7
2015-Jun-11 17:33N 32°32' W 117°39'1111.2
2015-Jun-11 16:33N 32°41' W 117°47'1312.8
2015-Jun-11 15:33N 32°53' W 117°52'1211.8
2015-Jun-11 14:33N 33°04' W 117°58'1111.1
2015-Jun-11 13:33N 33°14' W 118°03'2311.3
2015-Jun-11 11:30N 33°36' W 118°13'8 8.7
2015-Jun-11 10:34N 33°44' W 118°16'1 0.7
2015-Jun-11 09:30N 33°44' W 118°15'0 0.0
2015-Jun-11 08:30N 33°44' W 118°15'0 0.0
2015-Jun-11 07:33N 33°44' W 118°15'0 0.0
2015-Jun-11 04:15N 33°44' W 118°15'0 0.0
2015-Jun-11 03:33N 33°44' W 118°15'0 0.0
2015-Jun-11 01:06N 33°44' W 118°15'0 0.0
2015-Jun-11 00:33N 33°44' W 118°15'0 0.0
2015-Jun-10 23:21N 33°44' W 118°15'0 0.0
2015-Jun-10 22:27N 33°44' W 118°15'0 0.0
2015-Jun-10 20:24N 33°44' W 118°15'0 0.0
2015-Jun-10 19:33N 33°44' W 118°15'0 0.0
2015-Jun-10 18:21N 33°44' W 118°15'0 0.0
2015-Jun-10 17:18N 33°44' W 118°15'0 0.0
2015-Jun-10 16:30N 33°44' W 118°15'0 0.2
2015-Jun-10 15:33N 33°44' W 118°15'8 7.7
2015-Jun-10 14:33N 33°37' W 118°11'6 5.7
2015-Jun-10 13:33N 33°32' W 118°08'8 8.2
2015-Jun-10 12:33N 33°24' W 118°05'1010.1
2015-Jun-10 11:33N 33°15' W 118°00'1212.0
2015-Jun-10 10:33N 33°04' W 117°55'1212.5
2015-Jun-10 09:33N 32°52' W 117°51'1212.2
2015-Jun-10 08:33N 32°40' W 117°46'1211.7
2015-Jun-10 07:33N 32°29' W 117°42'1211.7
2015-Jun-10 06:33N 32°18' W 117°38'1212.2
2015-Jun-10 05:33N 32°06' W 117°33'80516.9
2015-Jun-08 06:00N 20°54' W 109°18'12710.6 210 / 231010.0 5.4 4.024.322.521.0
2015-Jun-07 18:00N 19°54' W 107°18'   170 / 271009.9 5.4 4.528.523.826.0

Dump ship's entire track history